메인 페이지
METAR-TAF:

METAR-TAF

공항 :

털사, 오클라호마, 미국

위도: 36-11-51N, 경도: 095-53-11W, 고도: 206m

현재 날씨관측

예보는 25분 전, 07:53시(UTC)에 발표되었습니다.
4kt
온도 12°C
습도 71%
기압 1015 hPa
시정: 16.1km
고도 25000ft 상공 구름 보통

METAR: KTUL 010753Z 19004KT 10SM SCT250 12/07 A2997 RMK AO2 SLP146 T01170067

시각: 03:18 (08:18 UTC)

예보

예보는 2 시간 58분 전, 05:20시(UTC)에 발표되었습니다.
예보 대상 시간: 01일 06시부터 02일 06시까지 (UTC)
5kt
시정: 10km
고도 25000ft 상공 구름 보통
01일 1400시부터 (UTC)
11kt
시정: 10km
고도 25000ft 상공 구름 보통
01일 1900시부터 (UTC)
15kt, 순간 최대 풍속 23kt
시정: 10km
고도 25000ft 상공 구름 많음
02일 0100시부터 (UTC)
12kt
시정: 10km
고도 25000ft 상공 흐림

TAF: KTUL 010520Z 0106/0206 18005KT P6SM SCT250 FM011400 18011KT P6SM SCT250 FM011900 17015G23KT P6SM BKN250 FM020100 17012KT P6SM OVC250

4,000개 이상의 공항 관측 자료 및 예보 (METAR 및 TAF 보고).

지도상에서 검색 가능한 기상관측소가 노란 점과 빨간 점으로 표시되어 있습니다.

기상관측소 명을 보려면 표시 위로 마우스를 이동하세요.

날씨 관측과 예보를 보려면 클릭하세요.

지도 변경 : 확대하려면 엑스 표시가 있는 녹색 버튼, 축소하려면 빼기 표시가 있는 녹색 버튼, 다음 페이지의 지도를 보려면 녹색 화살표를 클릭하세요.


METAR-TAF: